Airport View

Enter AWOS ICAO identifier for current METAR.

ex. KFNL

KROG 290358Z AUTO 00000KT 10SM BKN080 12/04 A3012 RMK AO2 SLP194 T01220044 PNO $

29 Sep 2020 04:54

Frequency: 134.375

Phone: 479-631-9196

Other Area AWOS: KVBT - KXNA - KASG - KSLG

TAF KROG 282320Z 2900/2924 33008KT P6SM OVC080 FM290200 VRB03KT P6SM SKC FM291500 29012KT P6SM SKC